Details From LIPZ - Venezia Tessera
To LIPY - Falconara
Flight Number -
Tags Generated
Created
Modified
Stats Distance 121 nm / 225 km
Max Altitude 0 ft / 0 m
Waypoints 2
Social Downloads 3
Likes 0
Share VATSIM

Download

Looking for another format? Having issues loading an existing format? Contact us
Advertisement - Login to hide

Notes

Generated

Route

LIPZ LIPY

ID Type Via Altitude Latitude Longitude Leg Dist Tot Dist Heading (true) Name
O LIPZ APT - 0 ft / 0 m 45.49516˚ 12.33556˚ - 0 nm - -
O LIPY APT - 0 ft / 0 m 43.60691˚ 13.34935˚ 121 nm 121 nm 159° / 159° -

Altitude Profile

Advertisement - Login to hide

LIPZ

Details ICAO LIPZ (VCE)
Name Venezia Tessera
Region Italy
Timezone Europe/Rome (UTC+2.0)
Stats Elevation 7 ft / 2 m (AMSL)
Location 45.504791° 12.349691°
Runways 2
Magnetic Variation 3.229° E

METAR

LIPZ 222050Z 03003KT 9999 SCT060 SCT070 19/17 Q1016 NOSIG

Decode

TAF

TAF LIPZ 221700Z 2218/2324 02008KT 9999 SCT040 TEMPO 2309/2315 TSRA BECMG 2310/2313 14010KT BECMG 2316/2318 VRB05KT

Decode

Departure Runways

ID Width Length Bearing (true) Bearing (mag) Surface Threshold Offset Overrun Length
04L 148 ft / 45 m 9,112 ft / 2,777 m 42.01° 38.78° Asphalt 312 ft / 95 m 0 ft / 0 m
04R 148 ft / 45 m 10,834 ft / 3,302 m 41.99° 38.76° Asphalt 0 ft / 0 m 0 ft / 0 m
22L 148 ft / 45 m 10,834 ft / 3,302 m 222.01° 218.78° Asphalt 0 ft / 0 m 0 ft / 0 m
22R 148 ft / 45 m 9,112 ft / 2,777 m 222.02° 218.79° Asphalt 0 ft / 0 m 0 ft / 0 m

LIPY

Details ICAO LIPY (AOI)
Name FALCONARA
Region Italy
Timezone Europe/Rome (UTC+2.0)
Stats Elevation 49 ft / 15 m (AMSL)
Location 43.616351° 13.362310°
Runways 1
Magnetic Variation 3.342° E

METAR

LIPY 222050Z VRB02KT 9999 SCT035 BKN075 17/16 Q1015

Decode

TAF

TAF LIPY 221700Z 2218/2318 VRB05KT 9999 SCT040 TEMPO 2218/2220 TSRA BECMG 2300/2303 34010KT TEMPO 2310/2316 TSRA

Decode

Destination Runways

ID Width Length Bearing (true) Bearing (mag) Surface Threshold Offset Overrun Length
04 148 ft / 45 m 9,711 ft / 2,960 m 44.81° 41.47° Asphalt 641 ft / 195 m 0 ft / 0 m
22 148 ft / 45 m 9,711 ft / 2,960 m 224.83° 221.49° Asphalt 492 ft / 150 m 0 ft / 0 m

Approach Navaids

Runway Type Ident Frequency Range Bearing (true) Bearing (mag) Slope Elevation
22 Localiser IFA 111.90 MHz 18 nm / 33 km 224.79° 221.45° - 47 ft / 14 m (AMSL)
22 Glidescope IFA 111.90 MHz 10 nm / 19 km 224.82° 221.48° 3.50° 34 ft / 10 m (AMSL)
22 DME IFA 111.90 MHz 18 nm / 33 km - - - 50 ft / 15 m (AMSL)

Popular Alternatives